createdAt,value
2023-05-14T00:00:01.832Z,22.53
2023-05-14T00:01:01.870Z,22.53
2023-05-14T00:02:01.961Z,22.53
2023-05-14T00:03:01.984Z,22.53
2023-05-14T00:04:01.995Z,22.53
2023-05-14T00:05:01.938Z,22.52
2023-05-14T00:06:01.960Z,22.52
2023-05-14T00:07:02.029Z,22.53
2023-05-14T00:08:02.005Z,22.52
2023-05-14T00:09:02.038Z,22.52
2023-05-14T00:10:02.077Z,22.53
2023-05-14T00:11:02.064Z,22.53
2023-05-14T00:12:02.087Z,22.53
2023-05-14T00:13:02.108Z,22.53
2023-05-14T00:14:02.133Z,22.53
2023-05-14T00:15:02.154Z,22.53
2023-05-14T00:16:02.240Z,22.52
2023-05-14T00:17:02.220Z,22.52
2023-05-14T00:18:02.330Z,22.52
2023-05-14T00:19:02.432Z,22.53
2023-05-14T00:20:02.298Z,22.52
2023-05-14T00:21:02.321Z,22.52
2023-05-14T00:22:02.366Z,22.52
2023-05-14T00:23:02.378Z,22.52
2023-05-14T00:24:02.392Z,22.51
2023-05-14T00:25:02.409Z,22.51
2023-05-14T00:26:02.433Z,22.52
2023-05-14T00:27:02.458Z,22.51
2023-05-14T00:28:02.468Z,22.51
2023-05-14T00:29:02.519Z,22.51
2023-05-14T00:30:02.516Z,22.51
2023-05-14T00:31:02.576Z,22.52
2023-05-14T00:32:02.563Z,22.51
2023-05-14T00:33:02.673Z,22.51
2023-05-14T00:34:02.618Z,22.51
2023-05-14T00:35:02.648Z,22.51
2023-05-14T00:36:02.654Z,22.51
2023-05-14T00:37:02.725Z,22.51
2023-05-14T00:38:02.716Z,22.50
2023-05-14T00:39:02.724Z,22.51
2023-05-14T00:40:02.821Z,22.51
2023-05-14T00:41:02.810Z,22.51
2023-05-14T00:42:02.799Z,22.51
2023-05-14T00:43:02.812Z,22.50
2023-05-14T00:44:02.845Z,22.51
2023-05-14T00:45:02.882Z,22.50
2023-05-14T00:46:02.910Z,22.50
2023-05-14T00:47:02.938Z,22.49
2023-05-14T00:48:03.003Z,22.50
2023-05-14T00:49:02.961Z,22.51
2023-05-14T00:50:02.993Z,22.50
2023-05-14T00:51:03.001Z,22.50
2023-05-14T00:52:03.020Z,22.50
2023-05-14T00:53:03.054Z,22.50
2023-05-14T00:54:03.080Z,22.50
2023-05-14T00:55:03.114Z,22.50
2023-05-14T00:56:03.119Z,22.49
2023-05-14T00:57:03.151Z,22.50
2023-05-14T00:58:03.154Z,22.49
2023-05-14T00:59:03.203Z,22.49
2023-05-14T01:00:03.231Z,22.49
2023-05-14T01:01:03.383Z,22.49
2023-05-14T01:02:03.300Z,22.49
2023-05-14T01:03:04.289Z,22.49
2023-05-14T01:04:03.441Z,22.49
2023-05-14T01:05:03.350Z,22.49
2023-05-14T01:06:03.436Z,22.49
2023-05-14T01:07:03.432Z,22.49
2023-05-14T01:08:04.224Z,22.49
2023-05-14T01:09:03.456Z,22.49
2023-05-14T01:10:03.503Z,22.48
2023-05-14T01:11:03.530Z,22.48
2023-05-14T01:12:03.551Z,22.48
2023-05-14T01:13:03.560Z,22.48
2023-05-14T01:14:03.578Z,22.48
2023-05-14T01:15:03.638Z,22.48
2023-05-14T01:16:03.658Z,22.48
2023-05-14T01:17:03.669Z,22.48
2023-05-14T01:18:03.787Z,22.48
2023-05-14T01:19:03.785Z,22.48
2023-05-14T01:20:03.772Z,22.47
2023-05-14T01:21:03.813Z,22.48
2023-05-14T01:22:03.841Z,22.48
2023-05-14T01:23:03.880Z,22.48
2023-05-14T01:24:03.970Z,22.48
2023-05-14T01:25:03.931Z,22.48
2023-05-14T01:26:03.956Z,22.48
2023-05-14T01:27:04.018Z,22.48
2023-05-14T01:28:04.018Z,22.46
2023-05-14T01:29:04.064Z,22.47
2023-05-14T01:30:04.113Z,22.47
2023-05-14T01:31:04.101Z,22.47
2023-05-14T01:32:04.239Z,22.47
2023-05-14T01:33:04.201Z,22.47
2023-05-14T01:34:04.196Z,22.47
2023-05-14T01:35:04.199Z,22.46
2023-05-14T01:36:04.245Z,22.46
2023-05-14T01:37:04.281Z,22.46
2023-05-14T01:38:04.305Z,22.46
2023-05-14T01:39:04.323Z,22.45
2023-05-14T01:40:04.393Z,22.46
2023-05-14T01:41:04.386Z,22.46
2023-05-14T01:42:04.419Z,22.46
2023-05-14T01:43:04.497Z,22.46
2023-05-14T01:44:04.475Z,22.46
2023-05-14T01:45:04.503Z,22.46
2023-05-14T01:46:04.619Z,22.46
2023-05-14T01:47:04.558Z,22.47
2023-05-14T01:48:04.675Z,22.46
2023-05-14T01:49:04.641Z,22.46
2023-05-14T01:50:04.666Z,22.45
2023-05-14T01:51:04.682Z,22.45
2023-05-14T01:52:04.723Z,22.46
2023-05-14T01:53:04.737Z,22.45
2023-05-14T01:54:04.794Z,22.46
2023-05-14T01:55:04.824Z,22.46
2023-05-14T01:56:04.843Z,22.45
2023-05-14T01:57:04.873Z,22.45
2023-05-14T01:58:04.899Z,22.45
2023-05-14T01:59:04.931Z,22.45
2023-05-14T02:00:04.964Z,22.44
2023-05-14T02:01:05.034Z,22.45
2023-05-14T02:02:05.035Z,22.45
2023-05-14T02:03:05.120Z,22.45
2023-05-14T02:04:05.160Z,22.45
2023-05-14T02:05:07.073Z,22.44
2023-05-14T02:06:05.174Z,22.45
2023-05-14T02:07:05.186Z,22.44
2023-05-14T02:08:05.205Z,22.44
2023-05-14T02:09:05.244Z,22.44
2023-05-14T02:10:05.281Z,22.45
2023-05-14T02:11:05.357Z,22.45
2023-05-14T02:12:05.326Z,22.45
2023-05-14T02:13:05.359Z,22.44
2023-05-14T02:14:05.385Z,22.44
2023-05-14T02:15:05.446Z,22.45
2023-05-14T02:16:05.506Z,22.44
2023-05-14T02:17:05.490Z,22.44
2023-05-14T02:18:05.541Z,22.43
2023-05-14T02:19:05.616Z,22.43
2023-05-14T02:20:05.573Z,22.44
2023-05-14T02:21:05.615Z,22.43
2023-05-14T02:22:05.616Z,22.44
2023-05-14T02:23:05.647Z,22.43
2023-05-14T02:24:05.673Z,22.44
2023-05-14T02:25:05.730Z,22.43
2023-05-14T02:26:05.743Z,22.43
2023-05-14T02:27:05.773Z,22.44
2023-05-14T02:28:05.784Z,22.43
2023-05-14T02:29:05.826Z,22.44
2023-05-14T02:30:05.853Z,22.44
2023-05-14T02:31:05.926Z,22.45
2023-05-14T02:32:05.935Z,22.44
2023-05-14T02:33:06.058Z,22.44
2023-05-14T02:34:06.007Z,22.44
2023-05-14T02:35:06.040Z,22.44
2023-05-14T02:36:06.052Z,22.44
2023-05-14T02:37:06.082Z,22.44
2023-05-14T02:38:06.111Z,22.43
2023-05-14T02:39:06.134Z,22.43
2023-05-14T02:40:06.175Z,22.44
2023-05-14T02:41:06.217Z,22.44
2023-05-14T02:42:06.245Z,22.43
2023-05-14T02:43:06.256Z,22.43
2023-05-14T02:44:06.284Z,22.43
2023-05-14T02:45:06.357Z,22.43
2023-05-14T02:46:06.363Z,22.43
2023-05-14T02:47:06.428Z,22.43
2023-05-14T02:48:06.493Z,22.42
2023-05-14T02:49:06.445Z,22.42
2023-05-14T02:50:06.506Z,22.42
2023-05-14T02:51:06.532Z,22.42
2023-05-14T02:52:06.563Z,22.42
2023-05-14T02:53:06.610Z,22.41
2023-05-14T02:54:06.642Z,22.43
2023-05-14T02:55:06.677Z,22.42
2023-05-14T02:56:06.707Z,22.42
2023-05-14T02:57:06.728Z,22.42
2023-05-14T02:58:06.756Z,22.42
2023-05-14T02:59:06.807Z,22.41
2023-05-14T03:00:06.833Z,22.42
2023-05-14T03:01:06.946Z,22.41
2023-05-14T03:02:06.987Z,22.41
2023-05-14T03:03:07.006Z,22.41
2023-05-14T03:04:06.984Z,22.41
2023-05-14T03:05:07.015Z,22.41
2023-05-14T03:06:07.060Z,22.42
2023-05-14T03:07:07.116Z,22.41
2023-05-14T03:08:07.122Z,22.41
2023-05-14T03:09:07.167Z,22.41
2023-05-14T03:10:07.202Z,22.41
2023-05-14T03:11:07.278Z,22.39
2023-05-14T03:12:07.278Z,22.40
2023-05-14T03:13:07.374Z,22.40
2023-05-14T03:14:07.359Z,22.40
2023-05-14T03:15:07.460Z,22.40
2023-05-14T03:16:07.781Z,22.40
2023-05-14T03:17:07.509Z,22.41
2023-05-14T03:18:07.527Z,22.40
2023-05-14T03:19:07.643Z,22.41
2023-05-14T03:20:07.567Z,22.40
2023-05-14T03:21:07.666Z,22.40
2023-05-14T03:22:07.642Z,22.40
2023-05-14T03:23:07.748Z,22.40
2023-05-14T03:24:07.741Z,22.40
2023-05-14T03:25:07.783Z,22.40
2023-05-14T03:26:07.786Z,22.40
2023-05-14T03:27:07.879Z,22.40
2023-05-14T03:28:07.882Z,22.41
2023-05-14T03:29:07.914Z,22.41
2023-05-14T03:30:08.001Z,22.41
2023-05-14T03:31:08.044Z,22.41
2023-05-14T03:32:08.035Z,22.41
2023-05-14T03:33:08.072Z,22.41
2023-05-14T03:34:08.111Z,22.40
2023-05-14T03:35:08.134Z,22.40
2023-05-14T03:36:08.183Z,22.40
2023-05-14T03:37:08.233Z,22.40
2023-05-14T03:38:08.270Z,22.39
2023-05-14T03:39:08.292Z,22.40
2023-05-14T03:40:08.330Z,22.39
2023-05-14T03:41:08.367Z,22.39
2023-05-14T03:42:08.396Z,22.40
2023-05-14T03:43:08.496Z,22.39
2023-05-14T03:44:08.517Z,22.39
2023-05-14T03:45:08.526Z,22.40
2023-05-14T03:46:08.612Z,22.39
2023-05-14T03:47:08.625Z,22.39
2023-05-14T03:48:08.796Z,22.39
2023-05-14T03:49:08.791Z,22.39
2023-05-14T03:50:08.755Z,22.40
2023-05-14T03:51:08.772Z,22.39
2023-05-14T03:52:08.847Z,22.40
2023-05-14T03:53:08.846Z,22.40
2023-05-14T03:54:08.910Z,22.39
2023-05-14T03:55:08.958Z,22.39
2023-05-14T03:56:08.986Z,22.39
2023-05-14T03:57:09.025Z,22.39
2023-05-14T03:58:09.042Z,22.39
2023-05-14T03:59:09.075Z,22.40
2023-05-14T04:00:09.120Z,22.40
2023-05-14T04:01:09.182Z,22.40
2023-05-14T04:02:09.228Z,22.39
2023-05-14T04:03:09.356Z,22.39
2023-05-14T04:04:09.362Z,22.39
2023-05-14T04:05:09.316Z,22.39
2023-05-14T04:06:09.337Z,22.39
2023-05-14T04:07:09.394Z,22.39
2023-05-14T04:08:09.410Z,22.39
2023-05-14T04:09:09.437Z,22.38
2023-05-14T04:10:09.481Z,22.38
2023-05-14T04:11:09.520Z,22.39
2023-05-14T04:12:09.567Z,22.39
2023-05-14T04:13:09.594Z,22.39
2023-05-14T04:14:09.644Z,22.39
2023-05-14T04:15:09.698Z,22.39
2023-05-14T04:16:09.751Z,22.40
2023-05-14T04:17:09.740Z,22.39
2023-05-14T04:18:09.803Z,22.39
2023-05-14T04:19:09.878Z,22.39
2023-05-14T04:20:09.861Z,22.40
2023-05-14T04:21:09.913Z,22.39
2023-05-14T04:22:09.940Z,22.39
2023-05-14T04:23:09.978Z,22.39
2023-05-14T04:24:10.036Z,22.40
2023-05-14T04:25:10.078Z,22.39
2023-05-14T04:26:10.132Z,22.39
2023-05-14T04:27:10.163Z,22.39
2023-05-14T04:28:10.219Z,22.39
2023-05-14T04:29:10.239Z,22.38
2023-05-14T04:30:10.292Z,22.38
2023-05-14T04:31:10.402Z,22.39
2023-05-14T04:32:10.360Z,22.38
2023-05-14T04:33:10.512Z,22.39
2023-05-14T04:34:10.423Z,22.39
2023-05-14T04:35:10.479Z,22.38
2023-05-14T04:36:10.559Z,22.38
2023-05-14T04:37:10.568Z,22.38
2023-05-14T04:38:10.644Z,22.39
2023-05-14T04:39:10.655Z,22.39
2023-05-14T04:40:10.694Z,22.39
2023-05-14T04:41:10.743Z,22.39
2023-05-14T04:42:10.799Z,22.38
2023-05-14T04:43:10.854Z,22.38
2023-05-14T04:44:10.887Z,22.37
2023-05-14T04:45:10.941Z,22.38
2023-05-14T04:46:11.073Z,22.38
2023-05-14T04:47:11.036Z,22.38
2023-05-14T04:48:11.116Z,22.38
2023-05-14T04:49:11.122Z,22.38
2023-05-14T04:50:11.195Z,22.37
2023-05-14T04:51:11.247Z,22.38
2023-05-14T04:52:11.270Z,22.39
2023-05-14T04:53:11.341Z,22.38
2023-05-14T04:54:11.408Z,22.38
2023-05-14T04:55:11.413Z,22.38
2023-05-14T04:56:11.485Z,22.38
2023-05-14T04:57:11.512Z,22.37
2023-05-14T04:58:11.580Z,22.37
2023-05-14T04:59:11.612Z,22.36
2023-05-14T05:00:11.672Z,22.37
2023-05-14T05:01:11.744Z,22.38
2023-05-14T05:02:11.730Z,22.38
2023-05-14T05:03:11.883Z,22.38
2023-05-14T05:04:11.860Z,22.38
2023-05-14T05:05:11.866Z,22.38
2023-05-14T05:06:11.920Z,22.39
2023-05-14T05:07:11.943Z,22.37
2023-05-14T05:08:11.982Z,22.38
2023-05-14T05:09:12.015Z,22.37
2023-05-14T05:10:12.056Z,22.38
2023-05-14T05:11:12.086Z,22.37
2023-05-14T05:12:12.151Z,22.38
2023-05-14T05:13:12.172Z,22.37
2023-05-14T05:14:12.241Z,22.37
2023-05-14T05:15:12.261Z,22.37
2023-05-14T05:16:12.359Z,22.37
2023-05-14T05:17:12.359Z,22.38
2023-05-14T05:18:12.395Z,22.37
2023-05-14T05:19:12.602Z,22.39
2023-05-14T05:20:12.495Z,22.38
2023-05-14T05:21:12.538Z,22.38
2023-05-14T05:22:12.567Z,22.39
2023-05-14T05:23:12.603Z,22.38
2023-05-14T05:24:12.634Z,22.38
2023-05-14T05:25:12.703Z,22.39
2023-05-14T05:26:12.721Z,22.38
2023-05-14T05:27:12.753Z,22.38
2023-05-14T05:28:12.792Z,22.38
2023-05-14T05:29:12.829Z,22.38
2023-05-14T05:30:12.868Z,22.39
2023-05-14T05:31:12.962Z,22.39
2023-05-14T05:32:12.944Z,22.39
2023-05-14T05:33:12.991Z,22.39
2023-05-14T05:34:13.018Z,22.38
2023-05-14T05:35:13.042Z,22.39
2023-05-14T05:36:13.127Z,22.38
2023-05-14T05:37:13.119Z,22.38
2023-05-14T05:38:13.166Z,22.38
2023-05-14T05:39:13.205Z,22.37
2023-05-14T05:40:13.230Z,22.38
2023-05-14T05:41:13.267Z,22.38
2023-05-14T05:42:13.320Z,22.38
2023-05-14T05:43:13.361Z,22.37
2023-05-14T05:44:13.426Z,22.38
2023-05-14T05:45:13.472Z,22.37
2023-05-14T05:46:13.574Z,22.37
2023-05-14T05:47:13.514Z,22.37
2023-05-14T05:48:13.585Z,22.37
2023-05-14T05:49:13.611Z,22.38
2023-05-14T05:50:13.675Z,22.37
2023-05-14T05:51:13.686Z,22.38
2023-05-14T05:52:13.736Z,22.38
2023-05-14T05:53:13.752Z,22.37
2023-05-14T05:54:13.801Z,22.39
2023-05-14T05:55:13.856Z,22.38
2023-05-14T05:56:13.904Z,22.38
2023-05-14T05:57:13.949Z,22.38
2023-05-14T05:58:13.997Z,22.38
2023-05-14T05:59:14.023Z,22.38
2023-05-14T06:00:14.110Z,22.38
2023-05-14T06:01:14.112Z,22.37
2023-05-14T06:02:14.216Z,22.38
2023-05-14T06:03:14.203Z,22.38
2023-05-14T06:04:14.212Z,22.38
2023-05-14T06:05:14.353Z,22.39
2023-05-14T06:06:14.327Z,22.39
2023-05-14T06:07:14.364Z,22.40
2023-05-14T06:08:14.389Z,22.40
2023-05-14T06:09:14.428Z,22.39
2023-05-14T06:10:14.477Z,22.39
2023-05-14T06:11:14.503Z,22.39
2023-05-14T06:12:14.573Z,22.40
2023-05-14T06:13:14.590Z,22.39
2023-05-14T06:14:14.608Z,22.39
2023-05-14T06:15:14.692Z,22.40
2023-05-14T06:16:14.735Z,22.40
2023-05-14T06:17:14.716Z,22.41
2023-05-14T06:18:14.754Z,22.41
2023-05-14T06:19:14.859Z,22.42
2023-05-14T06:20:14.854Z,22.41
2023-05-14T06:21:14.865Z,22.40
2023-05-14T06:22:14.890Z,22.40
2023-05-14T06:23:14.918Z,22.41
2023-05-14T06:24:14.973Z,22.41
2023-05-14T06:25:14.994Z,22.41
2023-05-14T06:26:15.064Z,22.42
2023-05-14T06:27:15.077Z,22.41
2023-05-14T06:28:15.137Z,22.42
2023-05-14T06:29:15.188Z,22.42
2023-05-14T06:30:15.209Z,22.42
2023-05-14T06:31:15.249Z,22.42
2023-05-14T06:32:15.371Z,22.42
2023-05-14T06:33:15.309Z,22.42
2023-05-14T06:34:15.350Z,22.42
2023-05-14T06:35:15.388Z,22.42
2023-05-14T06:36:15.464Z,22.42
2023-05-14T06:37:15.491Z,22.43
2023-05-14T06:38:15.530Z,22.43
2023-05-14T06:39:15.560Z,22.43
2023-05-14T06:40:15.645Z,22.44
2023-05-14T06:41:15.644Z,22.44
2023-05-14T06:42:15.673Z,22.44
2023-05-14T06:43:15.689Z,22.44
2023-05-14T06:44:15.733Z,22.45
2023-05-14T06:45:15.772Z,22.44
2023-05-14T06:46:15.816Z,22.46
2023-05-14T06:47:15.875Z,22.45
2023-05-14T06:48:15.952Z,22.45
2023-05-14T06:49:15.967Z,22.45
2023-05-14T06:50:16.938Z,22.44
2023-05-14T06:51:16.029Z,22.45
2023-05-14T06:52:16.028Z,22.46
2023-05-14T06:53:16.140Z,22.46
2023-05-14T06:54:16.095Z,22.46
2023-05-14T06:55:16.130Z,22.47
2023-05-14T06:56:16.188Z,22.47
2023-05-14T06:57:16.189Z,22.47
2023-05-14T06:58:16.226Z,22.47
2023-05-14T06:59:16.250Z,22.48
2023-05-14T07:00:16.306Z,22.48
2023-05-14T07:01:16.422Z,22.48
2023-05-14T07:02:16.360Z,22.49
2023-05-14T07:03:16.409Z,22.48
2023-05-14T07:04:16.451Z,22.49
2023-05-14T07:05:16.465Z,22.49
2023-05-14T07:06:16.560Z,22.50
2023-05-14T07:07:16.527Z,22.50
2023-05-14T07:08:16.581Z,22.50
2023-05-14T07:09:16.664Z,22.50
2023-05-14T07:10:16.615Z,22.51
2023-05-14T07:11:16.638Z,22.51
2023-05-14T07:12:16.675Z,22.52
2023-05-14T07:13:16.702Z,22.51
2023-05-14T07:14:16.742Z,22.53
2023-05-14T07:15:16.751Z,22.53
2023-05-14T07:16:16.783Z,22.54
2023-05-14T07:17:16.905Z,22.53
2023-05-14T07:18:16.878Z,22.54
2023-05-14T07:19:16.969Z,22.55
2023-05-14T07:20:16.909Z,22.55
2023-05-14T07:21:16.923Z,22.55
2023-05-14T07:22:16.974Z,22.55
2023-05-14T07:23:18.536Z,22.56
2023-05-14T07:24:16.968Z,22.56
2023-05-14T07:25:17.003Z,22.56
2023-05-14T07:26:16.944Z,22.56
2023-05-14T07:27:16.980Z,22.57
2023-05-14T07:28:16.936Z,22.57
2023-05-14T07:29:16.930Z,22.57
2023-05-14T07:30:16.911Z,22.57
2023-05-14T07:31:16.959Z,22.58
2023-05-14T07:32:16.903Z,22.58
2023-05-14T07:33:17.077Z,22.59
2023-05-14T07:34:16.886Z,22.59
2023-05-14T07:35:16.910Z,22.60
2023-05-14T07:36:16.920Z,22.60
2023-05-14T07:37:16.879Z,22.60
2023-05-14T07:38:16.872Z,22.61
2023-05-14T07:39:16.847Z,22.61
2023-05-14T07:40:16.925Z,22.61
2023-05-14T07:41:16.860Z,22.61
2023-05-14T07:42:27.942Z,22.62
2023-05-14T07:43:17.819Z,22.60
2023-05-14T07:44:16.817Z,22.61
2023-05-14T07:45:16.806Z,22.62
2023-05-14T07:46:16.801Z,22.62
2023-05-14T07:47:16.802Z,22.62
2023-05-14T07:48:16.821Z,22.62
2023-05-14T07:49:16.773Z,22.62
2023-05-14T07:50:16.773Z,22.62
2023-05-14T07:51:16.772Z,22.63
2023-05-14T07:52:16.766Z,22.63
2023-05-14T07:53:16.762Z,22.64
2023-05-14T07:54:16.748Z,22.63
2023-05-14T07:55:16.772Z,22.64
2023-05-14T07:56:16.735Z,22.65
2023-05-14T07:57:16.739Z,22.66
2023-05-14T07:58:16.705Z,22.67
2023-05-14T07:59:16.736Z,22.67
2023-05-14T08:00:16.723Z,22.67
2023-05-14T08:01:16.690Z,22.68
2023-05-14T08:02:16.956Z,22.68
2023-05-14T08:03:16.877Z,22.69
2023-05-14T08:04:16.768Z,22.70
2023-05-14T08:05:16.719Z,22.71
2023-05-14T08:06:16.751Z,22.71
2023-05-14T08:07:16.764Z,22.72
2023-05-14T08:08:16.774Z,22.73
2023-05-14T08:09:16.771Z,22.74
2023-05-14T08:10:16.784Z,22.74
2023-05-14T08:11:16.870Z,22.75
2023-05-14T08:12:16.824Z,22.75
2023-05-14T08:13:16.819Z,22.76
2023-05-14T08:14:16.854Z,22.77
2023-05-14T08:15:16.838Z,22.77
2023-05-14T08:16:16.899Z,22.78
2023-05-14T08:17:16.910Z,22.79
2023-05-14T08:18:16.875Z,22.80
2023-05-14T08:19:16.988Z,22.81
2023-05-14T08:20:16.861Z,22.82
2023-05-14T08:21:16.953Z,22.83
2023-05-14T08:22:16.867Z,22.83
2023-05-14T08:23:16.873Z,22.84
2023-05-14T08:24:16.882Z,22.84
2023-05-14T08:25:16.860Z,22.85
2023-05-14T08:26:16.869Z,22.84
2023-05-14T08:27:16.880Z,22.84
2023-05-14T08:28:16.878Z,22.84
2023-05-14T08:29:16.974Z,22.86
2023-05-14T08:30:16.870Z,22.85
2023-05-14T08:31:16.928Z,22.86
2023-05-14T08:32:23.284Z,22.86
2023-05-14T08:33:17.891Z,22.87
2023-05-14T08:34:16.868Z,22.87
2023-05-14T08:35:16.844Z,22.89
2023-05-14T08:36:16.868Z,22.89
2023-05-14T08:37:16.933Z,22.89
2023-05-14T08:38:16.824Z,22.90
2023-05-14T08:39:16.821Z,22.90
2023-05-14T08:40:16.815Z,22.90
2023-05-14T08:41:16.813Z,22.91
2023-05-14T08:42:16.813Z,22.92
2023-05-14T08:43:16.782Z,22.93
2023-05-14T08:44:16.774Z,22.94
2023-05-14T08:45:16.774Z,22.95
2023-05-14T08:46:16.761Z,22.95
2023-05-14T08:47:16.748Z,22.95
2023-05-14T08:48:16.873Z,22.96
2023-05-14T08:49:16.766Z,22.96
2023-05-14T08:50:16.730Z,22.97
2023-05-14T08:51:16.725Z,22.97
2023-05-14T08:52:16.719Z,22.98
2023-05-14T08:53:16.705Z,22.98
2023-05-14T08:54:16.705Z,22.98
2023-05-14T08:55:16.713Z,23.00
2023-05-14T08:56:16.700Z,23.00
2023-05-14T08:57:16.692Z,23.00
2023-05-14T08:58:16.698Z,23.00
2023-05-14T08:59:16.662Z,22.99
2023-05-14T09:00:16.651Z,23.00
2023-05-14T09:01:16.720Z,23.00
2023-05-14T09:02:16.666Z,23.01
2023-05-14T09:03:16.680Z,23.01
2023-05-14T09:04:16.730Z,23.01
2023-05-14T09:05:16.618Z,23.02
2023-05-14T09:06:16.633Z,23.03
2023-05-14T09:07:16.621Z,23.02
2023-05-14T09:08:16.744Z,23.02
2023-05-14T09:09:16.686Z,23.01
2023-05-14T09:10:16.609Z,22.99
2023-05-14T09:11:16.584Z,22.99
2023-05-14T09:12:16.594Z,22.98
2023-05-14T09:13:16.579Z,22.97
2023-05-14T09:14:16.571Z,22.97
2023-05-14T09:15:16.576Z,22.96
2023-05-14T09:16:16.606Z,22.96
2023-05-14T09:17:16.588Z,22.95
2023-05-14T09:18:16.547Z,22.96
2023-05-14T09:19:16.623Z,22.96
2023-05-14T09:20:16.528Z,22.97
2023-05-14T09:21:16.536Z,22.97
2023-05-14T09:22:16.507Z,22.98
2023-05-14T09:23:16.494Z,22.98
2023-05-14T09:24:16.495Z,22.99
2023-05-14T09:25:16.483Z,22.99
2023-05-14T09:26:16.483Z,23.01
2023-05-14T09:27:16.482Z,23.00
2023-05-14T09:28:16.456Z,23.00
2023-05-14T09:29:16.459Z,23.01
2023-05-14T09:30:16.462Z,23.01
2023-05-14T09:31:16.496Z,23.01
2023-05-14T09:32:16.473Z,23.02
2023-05-14T09:33:16.455Z,23.02
2023-05-14T09:34:16.459Z,23.03
2023-05-14T09:35:16.461Z,23.03
2023-05-14T09:36:16.456Z,23.04
2023-05-14T09:37:16.481Z,23.04
2023-05-14T09:38:16.494Z,23.05
2023-05-14T09:39:16.462Z,23.06
2023-05-14T09:40:16.473Z,23.07
2023-05-14T09:41:16.637Z,23.08
2023-05-14T09:42:16.472Z,23.08
2023-05-14T09:43:16.500Z,23.08
2023-05-14T09:44:16.474Z,23.08
2023-05-14T09:45:16.473Z,23.09
2023-05-14T09:46:16.465Z,23.09
2023-05-14T09:47:16.521Z,23.08
2023-05-14T09:48:16.499Z,23.07
2023-05-14T09:49:16.445Z,23.07
2023-05-14T09:50:16.461Z,23.06
2023-05-14T09:51:16.432Z,23.07
2023-05-14T09:52:16.435Z,23.08
2023-05-14T09:53:16.449Z,23.08
2023-05-14T09:54:16.443Z,23.08
2023-05-14T09:55:16.427Z,23.08
2023-05-14T09:56:16.433Z,23.09
2023-05-14T09:57:16.432Z,23.08
2023-05-14T09:58:16.472Z,23.10
2023-05-14T09:59:16.487Z,23.10
2023-05-14T10:00:16.542Z,23.12
2023-05-14T10:01:16.540Z,23.13
2023-05-14T10:02:16.524Z,23.12
2023-05-14T10:03:19.578Z,23.13
2023-05-14T10:04:16.604Z,23.12
2023-05-14T10:05:16.536Z,23.12
2023-05-14T10:06:16.523Z,23.12
2023-05-14T10:07:16.535Z,23.12
2023-05-14T10:08:16.534Z,23.11
2023-05-14T10:09:16.518Z,23.11
2023-05-14T10:10:16.479Z,23.12
2023-05-14T10:11:16.476Z,23.12
2023-05-14T10:12:16.481Z,23.12
2023-05-14T10:13:16.470Z,23.12
2023-05-14T10:14:16.454Z,23.12
2023-05-14T10:15:16.442Z,23.12
2023-05-14T10:16:16.436Z,23.12
2023-05-14T10:17:16.453Z,23.12
2023-05-14T10:18:16.516Z,23.13
2023-05-14T10:19:16.615Z,23.14
2023-05-14T10:20:16.434Z,23.13
2023-05-14T10:21:16.404Z,23.14
2023-05-14T10:22:16.399Z,23.13
2023-05-14T10:23:16.385Z,23.14
2023-05-14T10:24:16.400Z,23.13
2023-05-14T10:25:16.409Z,23.14
2023-05-14T10:26:16.370Z,23.13
2023-05-14T10:27:16.408Z,23.14
2023-05-14T10:28:16.355Z,23.14
2023-05-14T10:29:16.333Z,23.14
2023-05-14T10:30:16.372Z,23.14
2023-05-14T10:31:16.418Z,23.14
2023-05-14T10:32:16.349Z,23.14
2023-05-14T10:33:16.412Z,23.15
2023-05-14T10:34:16.313Z,23.14
2023-05-14T10:35:16.300Z,23.15
2023-05-14T10:36:16.289Z,23.15
2023-05-14T10:37:16.282Z,23.15
2023-05-14T10:38:16.281Z,23.14
2023-05-14T10:39:16.289Z,23.14
2023-05-14T10:40:16.300Z,23.14
2023-05-14T10:41:16.252Z,23.14
2023-05-14T10:42:16.304Z,23.14
2023-05-14T10:43:16.257Z,23.15
2023-05-14T10:44:16.226Z,23.14
2023-05-14T10:45:16.229Z,23.14
2023-05-14T10:46:16.250Z,23.14
2023-05-14T10:47:16.288Z,23.14
2023-05-14T10:48:16.313Z,23.15
2023-05-14T10:49:20.682Z,23.14
2023-05-14T10:50:17.185Z,23.14
2023-05-14T10:51:16.198Z,23.15
2023-05-14T10:52:16.204Z,23.16
2023-05-14T10:53:16.193Z,23.15
2023-05-14T10:54:16.152Z,23.15
2023-05-14T10:55:16.176Z,23.15
2023-05-14T10:56:16.153Z,23.15
2023-05-14T10:57:16.135Z,23.14
2023-05-14T10:58:16.160Z,23.15
2023-05-14T10:59:16.196Z,23.14
2023-05-14T11:00:16.225Z,23.14
2023-05-14T11:01:16.291Z,23.14
2023-05-14T11:02:16.436Z,23.13
2023-05-14T11:03:16.415Z,23.13
2023-05-14T11:04:16.465Z,23.13
2023-05-14T11:05:16.477Z,23.13
2023-05-14T11:06:16.562Z,23.12
2023-05-14T11:07:16.601Z,23.12
2023-05-14T11:08:16.649Z,23.13
2023-05-14T11:09:16.692Z,23.11
2023-05-14T11:10:16.773Z,23.11
2023-05-14T11:11:16.784Z,23.11
2023-05-14T11:12:16.831Z,23.10
2023-05-14T11:13:16.868Z,23.10
2023-05-14T11:14:16.905Z,23.10
2023-05-14T11:15:16.993Z,23.10
2023-05-14T11:16:23.287Z,23.09
2023-05-14T11:17:18.036Z,23.09
2023-05-14T11:18:17.048Z,23.09
2023-05-14T11:19:17.022Z,23.09
2023-05-14T11:20:16.986Z,23.08
2023-05-14T11:21:17.015Z,23.08
2023-05-14T11:22:16.961Z,23.08
2023-05-14T11:23:16.994Z,23.07
2023-05-14T11:24:17.002Z,23.07
2023-05-14T11:25:16.953Z,23.06
2023-05-14T11:26:17.865Z,23.06
2023-05-14T11:27:16.931Z,23.06
2023-05-14T11:28:16.935Z,23.06
2023-05-14T11:29:16.909Z,23.05
2023-05-14T11:30:16.959Z,23.06
2023-05-14T11:31:16.945Z,23.05
2023-05-14T11:32:16.961Z,23.05
2023-05-14T11:33:17.149Z,23.04
2023-05-14T11:34:17.031Z,23.05
2023-05-14T11:35:17.047Z,23.05
2023-05-14T11:36:17.104Z,23.04
2023-05-14T11:37:17.116Z,23.05
2023-05-14T11:38:17.109Z,23.03
2023-05-14T11:39:17.114Z,23.03
2023-05-14T11:40:17.262Z,23.04
2023-05-14T11:41:17.169Z,23.03
2023-05-14T11:42:17.169Z,23.03
2023-05-14T11:43:17.181Z,23.03
2023-05-14T11:44:17.177Z,23.02
2023-05-14T11:45:17.203Z,23.02
2023-05-14T11:46:17.302Z,23.03
2023-05-14T11:47:17.268Z,23.01
2023-05-14T11:48:17.252Z,23.02
2023-05-14T11:49:17.246Z,23.02
2023-05-14T11:50:17.254Z,23.02
2023-05-14T11:51:17.313Z,23.01
2023-05-14T11:52:17.258Z,23.01
2023-05-14T11:53:17.293Z,23.01
2023-05-14T11:54:17.274Z,23.00
2023-05-14T11:55:17.278Z,23.01
2023-05-14T11:56:17.266Z,23.00
2023-05-14T11:57:17.263Z,23.00
2023-05-14T11:58:17.294Z,22.99
2023-05-14T11:59:17.303Z,22.99
2023-05-14T12:00:17.278Z,22.99
2023-05-14T12:01:17.290Z,23.00
2023-05-14T12:02:17.346Z,22.99
2023-05-14T12:03:17.431Z,22.99
2023-05-14T12:04:17.338Z,22.99
2023-05-14T12:05:17.325Z,22.98
2023-05-14T12:06:17.272Z,22.98
2023-05-14T12:07:17.303Z,22.97
2023-05-14T12:08:17.309Z,22.97
2023-05-14T12:09:17.306Z,22.97
2023-05-14T12:10:17.306Z,22.96
2023-05-14T12:11:17.300Z,22.96
2023-05-14T12:12:17.308Z,22.97
2023-05-14T12:13:17.310Z,22.96
2023-05-14T12:14:17.321Z,22.96
2023-05-14T12:15:17.310Z,22.95
2023-05-14T12:16:17.411Z,22.95
2023-05-14T12:17:17.368Z,22.96
2023-05-14T12:18:24.685Z,22.96
2023-05-14T12:19:18.363Z,22.95
2023-05-14T12:20:17.294Z,22.96
2023-05-14T12:21:17.278Z,22.95
2023-05-14T12:22:17.288Z,22.95
2023-05-14T12:23:17.503Z,22.95
2023-05-14T12:24:17.260Z,22.96
2023-05-14T12:25:17.267Z,22.95
2023-05-14T12:26:17.246Z,22.96
2023-05-14T12:27:17.237Z,22.96
2023-05-14T12:28:17.235Z,22.95
2023-05-14T12:29:17.226Z,22.95
2023-05-14T12:30:21.965Z,22.94
2023-05-14T12:31:17.283Z,22.93
2023-05-14T12:32:17.206Z,22.93
2023-05-14T12:33:17.219Z,22.93
2023-05-14T12:34:17.208Z,22.92
2023-05-14T12:35:17.241Z,22.93
2023-05-14T12:36:21.889Z,22.93
2023-05-14T12:37:18.204Z,22.92
2023-05-14T12:38:17.179Z,22.92
2023-05-14T12:39:17.189Z,22.91
2023-05-14T12:40:17.225Z,22.91
2023-05-14T12:41:17.141Z,22.90
2023-05-14T12:42:17.160Z,22.91
2023-05-14T12:43:17.156Z,22.91
2023-05-14T12:44:17.126Z,22.90
2023-05-14T12:45:17.110Z,22.91
2023-05-14T12:46:17.188Z,22.91
2023-05-14T12:47:17.212Z,22.91
2023-05-14T12:48:17.097Z,22.91
2023-05-14T12:49:17.111Z,22.90
2023-05-14T12:50:17.065Z,22.89
2023-05-14T12:51:17.070Z,22.90
2023-05-14T12:52:26.107Z,22.89